createdAt,value
2023-01-07T00:00:26.409Z,9.70
2023-01-07T00:02:56.379Z,9.76
2023-01-07T00:05:35.565Z,9.82
2023-01-07T00:08:05.091Z,9.83
2023-01-07T00:10:50.059Z,9.77
2023-01-07T00:13:24.667Z,9.68
2023-01-07T00:15:56.290Z,9.66
2023-01-07T00:18:26.354Z,9.71
2023-01-07T00:20:58.137Z,9.81
2023-01-07T00:23:28.888Z,9.81
2023-01-07T00:26:04.130Z,9.85
2023-01-07T00:28:37.279Z,9.82
2023-01-07T00:31:11.808Z,9.76
2023-01-07T00:33:50.072Z,9.76
2023-01-07T00:36:19.357Z,9.78
2023-01-07T00:38:48.736Z,9.83
2023-01-07T00:41:20.058Z,9.86
2023-01-07T00:43:49.031Z,9.80
2023-01-07T00:46:18.121Z,9.74
2023-01-07T00:48:49.604Z,9.74
2023-01-07T00:51:19.771Z,9.76
2023-01-07T00:53:52.050Z,9.74
2023-01-07T00:56:24.793Z,9.77
2023-01-07T00:58:54.736Z,9.77
2023-01-07T01:01:23.690Z,9.87
2023-01-07T01:03:52.497Z,9.71
2023-01-07T01:06:23.761Z,9.86
2023-01-07T01:08:52.926Z,9.80
2023-01-07T01:11:23.527Z,9.74
2023-01-07T01:13:52.439Z,9.71
2023-01-07T01:16:21.557Z,9.66
2023-01-07T01:18:54.096Z,9.70
2023-01-07T01:21:27.626Z,9.71
2023-01-07T01:23:56.666Z,9.65
2023-01-07T01:26:26.723Z,9.67
2023-01-07T01:28:55.813Z,9.66
2023-01-07T01:31:26.988Z,9.73
2023-01-07T01:33:57.035Z,9.64
2023-01-07T01:36:25.784Z,9.73
2023-01-07T01:38:55.514Z,9.67
2023-01-07T01:41:28.052Z,9.69
2023-01-07T01:43:56.988Z,9.60
2023-01-07T01:46:32.821Z,9.80
2023-01-07T01:49:04.455Z,9.69
2023-01-07T01:51:34.958Z,9.73
2023-01-07T01:54:05.160Z,9.74
2023-01-07T01:56:37.142Z,9.70
2023-01-07T01:59:07.866Z,9.70
2023-01-07T02:01:40.107Z,9.72
2023-01-07T02:04:11.078Z,9.83
2023-01-07T02:06:42.603Z,9.65
2023-01-07T02:09:13.183Z,9.80
2023-01-07T02:11:46.252Z,9.78
2023-01-07T02:14:26.011Z,9.66
2023-01-07T02:16:57.567Z,9.62
2023-01-07T02:19:52.625Z,9.69
2023-01-07T02:22:27.829Z,9.73
2023-01-07T02:25:06.890Z,9.70
2023-01-07T02:27:51.529Z,9.71
2023-01-07T02:30:40.363Z,9.66
2023-01-07T02:33:34.911Z,9.71
2023-01-07T02:36:23.481Z,9.69
2023-01-07T02:39:01.546Z,9.65
2023-01-07T02:41:37.552Z,9.77
2023-01-07T02:44:08.422Z,9.69
2023-01-07T02:46:40.550Z,9.64
2023-01-07T02:49:11.878Z,9.73
2023-01-07T02:51:41.356Z,9.67
2023-01-07T02:54:14.938Z,9.83
2023-01-07T02:56:54.202Z,9.76
2023-01-07T02:59:31.747Z,9.75
2023-01-07T03:02:11.004Z,9.78
2023-01-07T03:04:50.213Z,9.73
2023-01-07T03:07:30.322Z,9.72
2023-01-07T03:10:01.854Z,9.58
2023-01-07T03:12:32.568Z,9.57
2023-01-07T03:15:07.246Z,9.60
2023-01-07T03:17:37.468Z,9.61
2023-01-07T03:20:10.832Z,9.65
2023-01-07T03:22:39.560Z,9.59
2023-01-07T03:25:15.654Z,9.62
2023-01-07T03:27:48.449Z,9.67
2023-01-07T03:30:17.942Z,9.75
2023-01-07T03:32:48.059Z,9.66
2023-01-07T03:35:18.091Z,9.66
2023-01-07T03:37:47.259Z,9.58
2023-01-07T03:40:16.377Z,9.52
2023-01-07T03:42:47.156Z,9.62
2023-01-07T03:45:17.492Z,9.65
2023-01-07T03:47:50.929Z,9.64
2023-01-07T03:50:21.486Z,9.71
2023-01-07T03:52:51.151Z,9.68
2023-01-07T03:55:20.596Z,9.55
2023-01-07T03:57:49.725Z,9.60
2023-01-07T04:00:19.230Z,9.56
2023-01-07T04:02:47.962Z,9.62
2023-01-07T04:05:20.131Z,9.62
2023-01-07T04:07:50.281Z,9.59
2023-01-07T04:10:19.279Z,9.58
2023-01-07T04:12:49.785Z,9.59
2023-01-07T04:15:19.754Z,9.55
2023-01-07T04:17:49.811Z,9.46
2023-01-07T04:20:19.006Z,9.45
2023-01-07T04:22:49.479Z,9.47
2023-01-07T04:25:19.370Z,9.41
2023-01-07T04:27:48.055Z,9.29
2023-01-07T04:30:17.206Z,9.36
2023-01-07T04:32:47.097Z,9.30
2023-01-07T04:35:16.334Z,9.28
2023-01-07T04:37:45.314Z,9.18
2023-01-07T04:40:15.922Z,9.27
2023-01-07T04:42:46.177Z,9.22
2023-01-07T04:45:14.963Z,9.30
2023-01-07T04:47:45.743Z,9.21
2023-01-07T04:50:16.105Z,9.19
2023-01-07T04:52:45.115Z,9.06
2023-01-07T04:55:15.586Z,9.10
2023-01-07T04:57:44.453Z,9.09
2023-01-07T05:00:14.155Z,8.92
2023-01-07T05:02:43.047Z,8.93
2023-01-07T05:05:14.698Z,8.92
2023-01-07T05:07:46.604Z,8.85
2023-01-07T05:10:20.277Z,8.84
2023-01-07T05:12:51.655Z,8.80
2023-01-07T05:15:20.860Z,8.83
2023-01-07T05:17:52.757Z,8.71
2023-01-07T05:20:24.340Z,8.79
2023-01-07T05:22:56.198Z,8.70
2023-01-07T05:25:30.534Z,8.70
2023-01-07T05:28:03.695Z,8.76
2023-01-07T05:30:32.420Z,8.75
2023-01-07T05:33:08.857Z,8.75
2023-01-07T05:35:40.189Z,8.73
2023-01-07T05:38:08.961Z,8.79
2023-01-07T05:40:39.737Z,8.80
2023-01-07T05:43:09.119Z,8.86
2023-01-07T05:45:37.878Z,8.84
2023-01-07T05:48:09.113Z,8.88
2023-01-07T05:50:38.273Z,8.94
2023-01-07T05:53:09.037Z,8.92
2023-01-07T05:55:39.935Z,8.99
2023-01-07T05:58:11.726Z,8.99
2023-01-07T06:00:40.380Z,9.08
2023-01-07T06:03:09.726Z,8.98
2023-01-07T06:05:39.487Z,9.02
2023-01-07T06:08:08.432Z,9.14
2023-01-07T06:10:38.494Z,9.09
2023-01-07T06:13:07.937Z,9.09
2023-01-07T06:15:36.704Z,8.98
2023-01-07T06:18:05.575Z,9.09
2023-01-07T06:20:35.042Z,9.06
2023-01-07T06:23:05.652Z,8.97
2023-01-07T06:25:35.307Z,9.10
2023-01-07T06:28:05.495Z,9.05
2023-01-07T06:30:34.554Z,9.19
2023-01-07T06:33:05.595Z,9.19
2023-01-07T06:35:34.809Z,9.20
2023-01-07T06:38:03.506Z,9.21
2023-01-07T06:40:32.165Z,9.23
2023-01-07T06:43:01.173Z,9.16
2023-01-07T06:45:31.580Z,9.25
2023-01-07T06:48:00.253Z,9.21
2023-01-07T06:50:29.024Z,9.19
2023-01-07T06:52:58.232Z,9.17
2023-01-07T06:55:26.965Z,9.18
2023-01-07T06:57:56.743Z,9.09
2023-01-07T07:00:25.480Z,9.10
2023-01-07T07:02:57.982Z,9.12
2023-01-07T07:05:28.661Z,9.25
2023-01-07T07:07:57.704Z,9.23
2023-01-07T07:10:27.369Z,9.26
2023-01-07T07:12:56.040Z,9.40
2023-01-07T07:15:28.088Z,9.21
2023-01-07T07:17:58.259Z,9.07
2023-01-07T07:20:27.288Z,9.18
2023-01-07T07:22:55.981Z,9.19
2023-01-07T07:25:42.643Z,9.17
2023-01-07T07:28:11.355Z,9.08
2023-01-07T07:30:47.636Z,9.05
2023-01-07T07:33:20.497Z,9.01
2023-01-07T07:35:49.535Z,9.01
2023-01-07T07:38:19.425Z,9.10
2023-01-07T07:40:48.140Z,8.99
2023-01-07T07:43:17.287Z,9.01
2023-01-07T07:45:46.483Z,8.92
2023-01-07T07:48:16.555Z,8.94
2023-01-07T07:50:47.098Z,8.93
2023-01-07T07:53:16.305Z,8.95
2023-01-07T07:55:45.321Z,8.96
2023-01-07T07:58:15.111Z,8.96
2023-01-07T08:00:46.274Z,8.92
2023-01-07T08:03:16.170Z,8.97
2023-01-07T08:05:46.427Z,8.96
2023-01-07T08:08:17.091Z,9.14
2023-01-07T08:10:51.765Z,8.91
2023-01-07T08:13:22.835Z,9.06
2023-01-07T08:15:52.611Z,9.04
2023-01-07T08:18:28.600Z,9.13
2023-01-07T08:20:58.898Z,9.05
2023-01-07T08:23:29.883Z,9.04
2023-01-07T08:26:03.427Z,9.10
2023-01-07T08:28:38.312Z,9.12
2023-01-07T08:31:14.465Z,9.09
2023-01-07T08:33:43.668Z,9.05
2023-01-07T08:36:23.874Z,8.94
2023-01-07T08:39:01.994Z,9.03
2023-01-07T08:41:31.268Z,8.99
2023-01-07T08:43:59.978Z,8.97
2023-01-07T08:46:29.766Z,9.02
2023-01-07T08:48:58.485Z,9.09
2023-01-07T08:51:30.089Z,9.08
2023-01-07T08:54:00.237Z,9.13
2023-01-07T08:56:29.015Z,9.23
2023-01-07T08:58:58.832Z,9.10
2023-01-07T09:01:30.264Z,9.00
2023-01-07T09:03:59.111Z,8.93
2023-01-07T09:06:32.811Z,9.00
2023-01-07T09:09:02.514Z,9.13
2023-01-07T09:11:31.779Z,9.02
2023-01-07T09:14:04.246Z,9.03
2023-01-07T09:16:33.068Z,9.04
2023-01-07T09:19:01.807Z,9.12
2023-01-07T09:21:52.396Z,9.13
2023-01-07T09:24:22.855Z,9.10
2023-01-07T09:26:52.893Z,9.09
2023-01-07T09:29:21.598Z,9.15
2023-01-07T09:31:50.351Z,9.05
2023-01-07T09:34:19.076Z,9.13
2023-01-07T09:36:49.349Z,9.15
2023-01-07T09:39:21.300Z,9.09
2023-01-07T09:41:56.203Z,9.10
2023-01-07T09:44:31.300Z,9.11
2023-01-07T09:47:02.891Z,9.10
2023-01-07T09:49:33.532Z,9.08
2023-01-07T09:52:07.285Z,9.26
2023-01-07T09:54:39.774Z,9.19
2023-01-07T09:57:10.743Z,9.29
2023-01-07T09:59:39.524Z,9.33
2023-01-07T10:02:13.236Z,9.41
2023-01-07T10:04:46.537Z,9.43
2023-01-07T10:07:22.456Z,9.46
2023-01-07T10:09:57.666Z,9.41
2023-01-07T10:12:28.414Z,9.39
2023-01-07T10:15:12.959Z,9.62
2023-01-07T10:17:50.955Z,9.44
2023-01-07T10:20:23.585Z,9.41
2023-01-07T10:22:58.716Z,9.53
2023-01-07T10:25:29.319Z,9.47
2023-01-07T10:28:02.288Z,9.38
2023-01-07T10:30:32.381Z,9.48
2023-01-07T10:33:03.273Z,9.59
2023-01-07T10:35:36.887Z,9.62
2023-01-07T10:38:16.509Z,9.67
2023-01-07T10:40:51.555Z,9.73
2023-01-07T10:43:29.745Z,9.42
2023-01-07T10:46:17.864Z,9.59
2023-01-07T10:49:06.183Z,9.57
2023-01-07T10:51:52.924Z,9.61
2023-01-07T10:54:34.538Z,9.61
2023-01-07T10:57:04.749Z,9.50
2023-01-07T10:59:34.464Z,9.40
2023-01-07T11:02:03.665Z,9.53
2023-01-07T11:04:37.430Z,9.51
2023-01-07T11:07:07.490Z,9.65
2023-01-07T11:09:40.991Z,9.66
2023-01-07T11:12:16.124Z,9.79
2023-01-07T11:14:48.793Z,9.72
2023-01-07T11:17:23.669Z,9.70
2023-01-07T11:19:54.934Z,9.81
2023-01-07T11:22:33.680Z,9.79
2023-01-07T11:25:05.059Z,9.67
2023-01-07T11:27:35.109Z,9.65
2023-01-07T11:30:12.030Z,9.80
2023-01-07T11:32:46.202Z,9.78
2023-01-07T11:35:25.194Z,9.78
2023-01-07T11:38:00.483Z,9.78
2023-01-07T11:40:35.513Z,9.86
2023-01-07T11:43:38.297Z,9.67
2023-01-07T11:46:20.403Z,9.89
2023-01-07T11:48:56.244Z,9.98
2023-01-07T11:51:25.506Z,9.87
2023-01-07T11:53:58.105Z,10.02
2023-01-07T11:56:36.531Z,9.98
2023-01-07T11:59:25.498Z,10.01
2023-01-07T12:01:59.078Z,9.89
2023-01-07T12:04:29.595Z,10.02
2023-01-07T12:07:03.710Z,9.82
2023-01-07T12:09:38.321Z,9.85
2023-01-07T12:12:27.521Z,9.94
2023-01-07T12:14:58.615Z,9.95
2023-01-07T12:17:27.522Z,9.92
2023-01-07T12:20:15.566Z,10.09
2023-01-07T12:22:48.089Z,9.84
2023-01-07T12:25:27.151Z,9.97
2023-01-07T12:28:08.320Z,9.83
2023-01-07T12:31:04.885Z,9.82
2023-01-07T12:33:45.356Z,9.73
2023-01-07T12:36:21.061Z,9.89
2023-01-07T12:39:12.976Z,9.73
2023-01-07T12:41:51.735Z,9.73
2023-01-07T12:44:31.632Z,9.61
2023-01-07T12:47:32.179Z,9.64
2023-01-07T12:50:04.918Z,9.68
2023-01-07T12:52:40.223Z,9.59
2023-01-07T12:55:26.743Z,9.64
2023-01-07T12:58:02.163Z,9.64
2023-01-07T13:00:36.397Z,9.64
2023-01-07T13:03:14.003Z,9.52
2023-01-07T13:05:48.863Z,9.68
2023-01-07T13:08:27.072Z,9.70
2023-01-07T13:13:50.663Z,9.66
2023-01-07T13:16:30.060Z,9.68
2023-01-07T13:18:59.638Z,9.68
2023-01-07T13:21:31.302Z,9.70
2023-01-07T13:24:14.427Z,9.65
2023-01-07T13:26:50.871Z,9.66
2023-01-07T13:29:33.314Z,9.73
2023-01-07T13:32:20.667Z,9.65
2023-01-07T13:34:59.039Z,9.76
2023-01-07T13:37:38.717Z,9.74
2023-01-07T13:40:22.530Z,9.62
2023-01-07T13:42:53.901Z,9.52
2023-01-07T13:45:24.485Z,9.60
2023-01-07T13:47:57.745Z,9.66
2023-01-07T13:50:30.386Z,9.73
2023-01-07T13:53:03.117Z,9.61
2023-01-07T13:55:44.355Z,9.74
2023-01-07T13:58:37.780Z,9.69
2023-01-07T14:01:07.419Z,9.74
2023-01-07T14:03:44.967Z,9.71
2023-01-07T14:06:34.087Z,9.59
2023-01-07T14:09:16.240Z,9.69
2023-01-07T14:11:52.441Z,9.66
2023-01-07T14:14:23.420Z,9.63
2023-01-07T14:16:55.246Z,9.70
2023-01-07T14:19:29.048Z,9.58
2023-01-07T14:22:03.406Z,9.74
2023-01-07T14:24:41.189Z,9.67
2023-01-07T14:27:17.728Z,9.60
2023-01-07T14:29:47.551Z,9.58
2023-01-07T14:32:29.556Z,9.55
2023-01-07T14:35:01.572Z,9.59
2023-01-07T14:37:35.281Z,9.58
2023-01-07T14:40:19.271Z,9.44
2023-01-07T14:42:48.088Z,9.49
2023-01-07T14:45:46.364Z,9.46
2023-01-07T14:48:33.859Z,9.42
2023-01-07T14:51:17.861Z,9.40
2023-01-07T14:53:59.900Z,9.42
2023-01-07T14:56:36.379Z,9.35
2023-01-07T14:59:16.645Z,9.28
2023-01-07T15:01:54.680Z,9.29
2023-01-07T15:04:42.909Z,9.38
2023-01-07T15:07:16.893Z,9.32
2023-01-07T15:10:05.967Z,9.23
2023-01-07T15:12:48.325Z,9.10
2023-01-07T15:15:34.721Z,9.07
2023-01-07T15:18:03.520Z,9.11
2023-01-07T15:20:51.727Z,9.03
2023-01-07T15:23:41.660Z,9.10
2023-01-07T15:26:13.008Z,8.99
2023-01-07T15:28:44.917Z,9.05
2023-01-07T15:31:17.756Z,8.91
2023-01-07T15:33:54.518Z,8.91
2023-01-07T15:36:34.092Z,8.83
2023-01-07T15:39:04.374Z,8.91
2023-01-07T15:41:34.093Z,8.84
2023-01-07T15:44:07.231Z,8.86
2023-01-07T15:46:36.566Z,8.76
2023-01-07T15:49:11.240Z,8.78
2023-01-07T15:51:40.467Z,8.73
2023-01-07T15:54:24.342Z,8.68
2023-01-07T15:56:54.414Z,8.61
2023-01-07T15:59:26.897Z,8.55
2023-01-07T16:01:59.461Z,8.58
2023-01-07T16:04:33.180Z,8.61
2023-01-07T16:07:02.263Z,8.41
2023-01-07T16:09:34.299Z,8.47
2023-01-07T16:12:03.866Z,8.43
2023-01-07T16:14:37.135Z,8.40
2023-01-07T16:17:08.705Z,8.38
2023-01-07T16:19:37.864Z,8.40
2023-01-07T16:22:07.874Z,8.27
2023-01-07T16:24:38.507Z,8.30
2023-01-07T16:27:07.698Z,8.25
2023-01-07T16:29:41.359Z,8.25
2023-01-07T16:32:10.568Z,8.21
2023-01-07T16:34:54.487Z,8.23
2023-01-07T16:37:26.261Z,8.11
2023-01-07T16:39:56.878Z,8.14
2023-01-07T16:42:29.656Z,8.10
2023-01-07T16:45:04.948Z,8.05
2023-01-07T16:47:34.711Z,8.01
2023-01-07T16:50:29.294Z,8.04
2023-01-07T16:53:02.434Z,7.97
2023-01-07T16:55:49.127Z,7.98
2023-01-07T16:58:27.365Z,8.01
2023-01-07T17:00:57.385Z,7.91
2023-01-07T17:03:27.815Z,7.93
2023-01-07T17:06:04.879Z,7.94
2023-01-07T17:08:37.525Z,7.87
2023-01-07T17:11:16.357Z,7.93
2023-01-07T17:13:49.644Z,7.93
2023-01-07T17:16:31.611Z,7.84
2023-01-07T17:19:19.097Z,7.81
2023-01-07T17:21:52.625Z,7.77
2023-01-07T17:27:37.056Z,7.87
2023-01-07T17:30:07.679Z,7.80
2023-01-07T17:32:39.609Z,7.74
2023-01-07T17:35:12.095Z,7.79
2023-01-07T17:37:43.203Z,7.81
2023-01-07T17:40:19.560Z,7.87
2023-01-07T17:45:49.038Z,7.79
2023-01-07T17:48:25.629Z,7.80
2023-01-07T17:51:01.735Z,7.84
2023-01-07T17:53:34.319Z,7.79
2023-01-07T17:56:06.617Z,7.82
2023-01-07T17:58:42.502Z,7.81
2023-01-07T18:01:15.502Z,7.81
2023-01-07T18:03:50.081Z,7.81
2023-01-07T18:06:27.948Z,7.80
2023-01-07T18:09:10.730Z,7.82
2023-01-07T18:11:55.527Z,7.84
2023-01-07T18:14:29.946Z,7.85
2023-01-07T18:17:02.122Z,7.92
2023-01-07T18:19:35.549Z,8.04
2023-01-07T18:22:11.142Z,8.01
2023-01-07T18:24:42.928Z,8.02
2023-01-07T18:27:17.599Z,8.03
2023-01-07T18:29:53.188Z,8.01
2023-01-07T18:32:25.134Z,8.12
2023-01-07T18:35:01.272Z,8.10
2023-01-07T18:37:33.042Z,8.13
2023-01-07T18:40:05.446Z,8.13
2023-01-07T18:42:35.091Z,8.14
2023-01-07T18:45:14.837Z,8.15
2023-01-07T18:47:51.505Z,8.20
2023-01-07T18:50:30.227Z,8.18
2023-01-07T18:53:03.603Z,8.26
2023-01-07T18:55:36.842Z,8.28
2023-01-07T18:58:05.900Z,8.27
2023-01-07T19:00:39.240Z,8.35
2023-01-07T19:03:15.715Z,8.40
2023-01-07T19:05:48.366Z,8.38
2023-01-07T19:08:22.138Z,8.44
2023-01-07T19:10:53.644Z,8.41
2023-01-07T19:13:25.269Z,8.49
2023-01-07T19:15:55.920Z,8.57
2023-01-07T19:18:30.497Z,8.55
2023-01-07T19:21:04.482Z,8.63
2023-01-07T19:23:37.309Z,8.53
2023-01-07T19:26:08.351Z,8.60
2023-01-07T19:28:38.550Z,8.54
2023-01-07T19:31:14.900Z,8.60
2023-01-07T19:33:46.352Z,8.62
2023-01-07T19:36:18.346Z,8.61
2023-01-07T19:38:50.458Z,8.59
2023-01-07T19:41:25.293Z,8.65
2023-01-07T19:44:02.770Z,8.57
2023-01-07T19:46:38.247Z,8.55
2023-01-07T19:49:08.910Z,8.58
2023-01-07T19:51:40.815Z,8.56
2023-01-07T19:54:11.978Z,8.56
2023-01-07T19:56:41.885Z,8.65
2023-01-07T19:59:11.508Z,8.56
2023-01-07T20:01:44.255Z,8.59
2023-01-07T20:04:13.354Z,8.62
2023-01-07T20:06:43.981Z,8.61
2023-01-07T20:09:13.200Z,8.56
2023-01-07T20:11:43.564Z,8.55
2023-01-07T20:14:22.344Z,8.46
2023-01-07T20:16:53.530Z,8.54
2023-01-07T20:19:27.526Z,8.54
2023-01-07T20:21:56.940Z,8.56
2023-01-07T20:24:25.890Z,8.57
2023-01-07T20:27:04.961Z,8.60
2023-01-07T20:29:37.116Z,8.59
2023-01-07T20:32:10.304Z,8.66
2023-01-07T20:34:39.825Z,8.68
2023-01-07T20:37:09.545Z,8.63
2023-01-07T20:39:38.949Z,8.71
2023-01-07T20:44:52.186Z,8.71
2023-01-07T20:47:22.975Z,8.81
2023-01-07T20:49:52.681Z,8.79
2023-01-07T20:52:21.668Z,8.78
2023-01-07T20:54:52.032Z,8.84
2023-01-07T20:57:30.250Z,8.79
2023-01-07T21:00:00.092Z,8.91
2023-01-07T21:02:33.056Z,8.92
2023-01-07T21:05:03.719Z,8.93
2023-01-07T21:07:34.777Z,8.82
2023-01-07T21:10:12.239Z,8.92
2023-01-07T21:12:41.548Z,8.98
2023-01-07T21:15:13.192Z,8.93
2023-01-07T21:17:45.917Z,8.74
2023-01-07T21:23:00.916Z,8.88
2023-01-07T21:25:30.488Z,8.70
2023-01-07T21:28:00.089Z,8.60
2023-01-07T21:30:30.200Z,8.68
2023-01-07T21:33:01.953Z,8.65
2023-01-07T21:35:31.238Z,8.60
2023-01-07T21:38:00.182Z,8.61
2023-01-07T21:40:29.096Z,8.48
2023-01-07T21:42:58.426Z,8.53
2023-01-07T21:45:28.884Z,8.60
2023-01-07T21:48:00.740Z,8.58
2023-01-07T21:50:29.945Z,8.65
2023-01-07T21:53:00.207Z,8.71
2023-01-07T21:55:29.369Z,8.73
2023-01-07T21:58:01.479Z,8.74
2023-01-07T22:00:30.714Z,8.74
2023-01-07T22:03:03.949Z,8.65
2023-01-07T22:05:33.469Z,8.67
2023-01-07T22:08:02.689Z,8.78
2023-01-07T22:10:32.557Z,8.65
2023-01-07T22:13:01.952Z,8.68
2023-01-07T22:15:31.259Z,8.72
2023-01-07T22:18:02.413Z,8.81
2023-01-07T22:20:31.296Z,8.71
2023-01-07T22:23:00.735Z,8.74
2023-01-07T22:25:29.688Z,8.74
2023-01-07T22:27:58.897Z,8.82
2023-01-07T22:30:27.956Z,8.87
2023-01-07T22:32:57.252Z,8.89
2023-01-07T22:35:27.551Z,8.90
2023-01-07T22:37:56.517Z,8.90
2023-01-07T22:40:25.439Z,8.90
2023-01-07T22:42:56.483Z,8.97
2023-01-07T22:45:29.216Z,8.95
2023-01-07T22:47:58.450Z,9.00
2023-01-07T22:50:31.785Z,9.09
2023-01-07T22:53:06.714Z,9.15
2023-01-07T22:55:37.896Z,9.21
2023-01-07T22:58:07.189Z,9.07
2023-01-07T23:00:42.663Z,9.13
2023-01-07T23:03:11.968Z,9.19
2023-01-07T23:05:42.621Z,9.19
2023-01-07T23:08:11.528Z,9.24
2023-01-07T23:10:40.521Z,9.23
2023-01-07T23:13:12.324Z,9.28
2023-01-07T23:15:41.284Z,9.27
2023-01-07T23:18:11.573Z,9.39
2023-01-07T23:20:42.459Z,9.35
2023-01-07T23:23:12.647Z,9.31
2023-01-07T23:25:50.315Z,9.31
2023-01-07T23:28:20.887Z,9.45
2023-01-07T23:30:52.949Z,9.41
2023-01-07T23:33:21.980Z,9.45
2023-01-07T23:35:52.315Z,9.32
2023-01-07T23:38:24.004Z,9.34
2023-01-07T23:41:01.984Z,9.34
2023-01-07T23:43:31.746Z,9.24
2023-01-07T23:46:02.158Z,9.25
2023-01-07T23:48:32.743Z,9.28
2023-01-07T23:51:08.418Z,9.24
2023-01-07T23:53:37.408Z,9.32
2023-01-07T23:56:06.637Z,9.23
